sensor_id;sensor_type;location;lat;lon;timestamp;P1;durP1;ratioP1;P2;durP2;ratioP2
45522;SDS011;31254;51.680;5.394;2023-03-21T00:01:36;20.35;;;11.10;;
45522;SDS011;31254;51.680;5.394;2023-03-21T00:04:03;20.35;;;10.75;;
45522;SDS011;31254;51.680;5.394;2023-03-21T00:06:30;23.33;;;11.23;;
45522;SDS011;31254;51.680;5.394;2023-03-21T00:08:57;23.92;;;11.07;;
45522;SDS011;31254;51.680;5.394;2023-03-21T00:11:24;19.10;;;11.35;;
45522;SDS011;31254;51.680;5.394;2023-03-21T00:13:53;20.08;;;10.93;;
45522;SDS011;31254;51.680;5.394;2023-03-21T00:16:28;21.40;;;10.88;;
45522;SDS011;31254;51.680;5.394;2023-03-21T00:19:05;17.55;;;10.80;;
45522;SDS011;31254;51.680;5.394;2023-03-21T00:21:32;16.45;;;10.30;;
45522;SDS011;31254;51.680;5.394;2023-03-21T00:24:21;17.92;;;11.10;;
45522;SDS011;31254;51.680;5.394;2023-03-21T00:26:49;21.35;;;11.00;;
45522;SDS011;31254;51.680;5.394;2023-03-21T00:29:16;16.27;;;10.88;;
45522;SDS011;31254;51.680;5.394;2023-03-21T00:31:47;17.85;;;11.07;;
45522;SDS011;31254;51.680;5.394;2023-03-21T00:34:14;21.13;;;10.93;;
45522;SDS011;31254;51.680;5.394;2023-03-21T00:36:57;19.23;;;10.75;;
45522;SDS011;31254;51.680;5.394;2023-03-21T00:39:23;17.63;;;11.73;;
45522;SDS011;31254;51.680;5.394;2023-03-21T00:41:50;18.33;;;10.75;;
45522;SDS011;31254;51.680;5.394;2023-03-21T00:44:22;22.70;;;10.77;;
45522;SDS011;31254;51.680;5.394;2023-03-21T00:46:51;15.90;;;10.18;;
45522;SDS011;31254;51.680;5.394;2023-03-21T00:49:32;20.92;;;11.05;;
45522;SDS011;31254;51.680;5.394;2023-03-21T00:51:59;21.85;;;9.82;;
45522;SDS011;31254;51.680;5.394;2023-03-21T00:54:41;16.25;;;9.70;;
45522;SDS011;31254;51.680;5.394;2023-03-21T00:57:07;17.63;;;10.23;;
45522;SDS011;31254;51.680;5.394;2023-03-21T00:59:34;16.23;;;9.60;;
45522;SDS011;31254;51.680;5.394;2023-03-21T01:02:03;19.23;;;10.30;;
45522;SDS011;31254;51.680;5.394;2023-03-21T01:04:32;16.40;;;10.05;;
45522;SDS011;31254;51.680;5.394;2023-03-21T01:06:59;18.23;;;10.45;;
45522;SDS011;31254;51.680;5.394;2023-03-21T01:09:26;22.40;;;10.93;;
45522;SDS011;31254;51.680;5.394;2023-03-21T01:11:53;21.13;;;10.65;;
45522;SDS011;31254;51.680;5.394;2023-03-21T01:14:21;25.10;;;11.50;;
45522;SDS011;31254;51.680;5.394;2023-03-21T01:16:52;21.80;;;11.77;;
45522;SDS011;31254;51.680;5.394;2023-03-21T01:19:20;22.35;;;12.15;;
45522;SDS011;31254;51.680;5.394;2023-03-21T01:22:11;20.75;;;11.20;;
45522;SDS011;31254;51.680;5.394;2023-03-21T01:24:38;22.55;;;11.40;;
45522;SDS011;31254;51.680;5.394;2023-03-21T01:27:18;20.20;;;11.73;;
45522;SDS011;31254;51.680;5.394;2023-03-21T01:29:47;19.42;;;11.77;;
45522;SDS011;31254;51.680;5.394;2023-03-21T01:32:13;21.70;;;11.52;;
45522;SDS011;31254;51.680;5.394;2023-03-21T01:34:40;21.52;;;11.82;;
45522;SDS011;31254;51.680;5.394;2023-03-21T01:37:09;26.45;;;11.65;;
45522;SDS011;31254;51.680;5.394;2023-03-21T01:39:38;22.05;;;11.20;;
45522;SDS011;31254;51.680;5.394;2023-03-21T01:42:05;22.77;;;11.40;;
45522;SDS011;31254;51.680;5.394;2023-03-21T01:44:50;24.30;;;11.75;;
45522;SDS011;31254;51.680;5.394;2023-03-21T01:47:23;21.67;;;10.63;;
45522;SDS011;31254;51.680;5.394;2023-03-21T01:49:54;20.65;;;10.77;;
45522;SDS011;31254;51.680;5.394;2023-03-21T01:52:26;27.50;;;11.45;;
45522;SDS011;31254;51.680;5.394;2023-03-21T01:55:05;21.15;;;10.35;;
45522;SDS011;31254;51.680;5.394;2023-03-21T01:57:39;23.92;;;10.98;;
45522;SDS011;31254;51.680;5.394;2023-03-21T02:00:29;24.55;;;10.63;;
45522;SDS011;31254;51.680;5.394;2023-03-21T02:02:57;19.60;;;10.00;;
45522;SDS011;31254;51.680;5.394;2023-03-21T02:08:23;19.17;;;9.77;;
45522;SDS011;31254;51.680;5.394;2023-03-21T02:11:04;18.02;;;9.85;;
45522;SDS011;31254;51.680;5.394;2023-03-21T02:13:32;19.42;;;10.20;;
45522;SDS011;31254;51.680;5.394;2023-03-21T02:16:05;19.13;;;10.07;;
45522;SDS011;31254;51.680;5.394;2023-03-21T02:19:04;21.40;;;9.27;;
45522;SDS011;31254;51.680;5.394;2023-03-21T02:37:34;22.27;;;8.35;;
45522;SDS011;31254;51.680;5.394;2023-03-21T02:40:13;18.02;;;7.68;;
45522;SDS011;31254;51.680;5.394;2023-03-21T02:43:10;17.55;;;8.10;;
45522;SDS011;31254;51.680;5.394;2023-03-21T02:45:52;11.70;;;7.25;;
45522;SDS011;31254;51.680;5.394;2023-03-21T02:51:34;16.80;;;7.43;;
45522;SDS011;31254;51.680;5.394;2023-03-21T02:54:04;15.52;;;7.03;;
45522;SDS011;31254;51.680;5.394;2023-03-21T02:56:59;14.32;;;7.53;;
45522;SDS011;31254;51.680;5.394;2023-03-21T02:59:29;16.70;;;6.97;;
45522;SDS011;31254;51.680;5.394;2023-03-21T03:02:02;12.57;;;6.63;;
45522;SDS011;31254;51.680;5.394;2023-03-21T03:04:32;16.27;;;6.75;;
45522;SDS011;31254;51.680;5.394;2023-03-21T03:07:02;14.65;;;6.70;;
45522;SDS011;31254;51.680;5.394;2023-03-21T03:09:46;16.65;;;6.25;;
45522;SDS011;31254;51.680;5.394;2023-03-21T03:12:31;11.30;;;5.88;;
45522;SDS011;31254;51.680;5.394;2023-03-21T03:18:03;15.10;;;5.65;;
45522;SDS011;31254;51.680;5.394;2023-03-21T03:23:54;13.85;;;5.93;;
45522;SDS011;31254;51.680;5.394;2023-03-21T03:28:54;12.63;;;6.38;;
45522;SDS011;31254;51.680;5.394;2023-03-21T03:31:26;11.50;;;6.65;;
45522;SDS011;31254;51.680;5.394;2023-03-21T03:33:58;17.02;;;6.10;;
45522;SDS011;31254;51.680;5.394;2023-03-21T03:36:33;13.25;;;5.57;;
45522;SDS011;31254;51.680;5.394;2023-03-21T03:39:06;12.68;;;6.35;;
45522;SDS011;31254;51.680;5.394;2023-03-21T03:41:41;12.90;;;6.10;;
45522;SDS011;31254;51.680;5.394;2023-03-21T03:44:31;16.73;;;6.22;;
45522;SDS011;31254;51.680;5.394;2023-03-21T03:47:11;14.20;;;6.55;;
45522;SDS011;31254;51.680;5.394;2023-03-21T03:52:30;15.27;;;5.82;;
45522;SDS011;31254;51.680;5.394;2023-03-21T03:55:13;14.98;;;6.65;;
45522;SDS011;31254;51.680;5.394;2023-03-21T03:57:43;15.68;;;6.63;;
45522;SDS011;31254;51.680;5.394;2023-03-21T04:00:16;18.17;;;6.57;;
45522;SDS011;31254;51.680;5.394;2023-03-21T04:02:43;13.38;;;6.50;;
45522;SDS011;31254;51.680;5.394;2023-03-21T04:05:11;13.88;;;6.38;;
45522;SDS011;31254;51.680;5.394;2023-03-21T04:07:40;14.07;;;6.43;;
45522;SDS011;31254;51.680;5.394;2023-03-21T04:10:07;14.48;;;6.00;;
45522;SDS011;31254;51.680;5.394;2023-03-21T04:12:37;15.25;;;7.15;;
45522;SDS011;31254;51.680;5.394;2023-03-21T04:15:04;11.13;;;5.88;;
45522;SDS011;31254;51.680;5.394;2023-03-21T04:17:36;15.05;;;6.32;;
45522;SDS011;31254;51.680;5.394;2023-03-21T04:20:07;13.07;;;6.45;;
45522;SDS011;31254;51.680;5.394;2023-03-21T04:22:43;12.02;;;6.25;;
45522;SDS011;31254;51.680;5.394;2023-03-21T04:25:10;15.75;;;6.65;;
45522;SDS011;31254;51.680;5.394;2023-03-21T04:27:52;14.40;;;6.55;;
45522;SDS011;31254;51.680;5.394;2023-03-21T04:30:21;13.07;;;6.40;;
45522;SDS011;31254;51.680;5.394;2023-03-21T04:32:53;13.43;;;7.20;;
45522;SDS011;31254;51.680;5.394;2023-03-21T04:35:22;15.95;;;6.72;;
45522;SDS011;31254;51.680;5.394;2023-03-21T04:37:50;16.35;;;6.53;;
45522;SDS011;31254;51.680;5.394;2023-03-21T04:40:17;14.05;;;7.57;;
45522;SDS011;31254;51.680;5.394;2023-03-21T04:42:46;14.73;;;6.80;;
45522;SDS011;31254;51.680;5.394;2023-03-21T04:45:14;15.20;;;6.80;;
45522;SDS011;31254;51.680;5.394;2023-03-21T04:47:42;16.02;;;7.18;;
45522;SDS011;31254;51.680;5.394;2023-03-21T04:50:09;18.20;;;6.95;;
45522;SDS011;31254;51.680;5.394;2023-03-21T04:52:36;18.05;;;7.03;;
45522;SDS011;31254;51.680;5.394;2023-03-21T04:55:06;13.00;;;6.90;;
45522;SDS011;31254;51.680;5.394;2023-03-21T04:57:36;15.82;;;7.18;;
45522;SDS011;31254;51.680;5.394;2023-03-21T05:00:04;14.25;;;6.50;;
45522;SDS011;31254;51.680;5.394;2023-03-21T05:02:36;13.85;;;7.07;;
45522;SDS011;31254;51.680;5.394;2023-03-21T05:05:03;13.43;;;6.55;;
45522;SDS011;31254;51.680;5.394;2023-03-21T05:07:31;15.52;;;6.90;;
45522;SDS011;31254;51.680;5.394;2023-03-21T05:09:58;15.32;;;7.13;;
45522;SDS011;31254;51.680;5.394;2023-03-21T05:12:27;11.95;;;6.40;;
45522;SDS011;31254;51.680;5.394;2023-03-21T05:14:56;14.07;;;6.90;;
45522;SDS011;31254;51.680;5.394;2023-03-21T05:17:23;13.57;;;6.10;;
45522;SDS011;31254;51.680;5.394;2023-03-21T05:19:50;16.33;;;7.35;;
45522;SDS011;31254;51.680;5.394;2023-03-21T05:22:18;17.25;;;6.95;;
45522;SDS011;31254;51.680;5.394;2023-03-21T05:24:45;11.82;;;6.45;;
45522;SDS011;31254;51.680;5.394;2023-03-21T05:27:18;13.95;;;6.60;;
45522;SDS011;31254;51.680;5.394;2023-03-21T05:32:30;14.52;;;7.00;;
45522;SDS011;31254;51.680;5.394;2023-03-21T05:34:59;17.92;;;6.72;;
45522;SDS011;31254;51.680;5.394;2023-03-21T05:37:29;20.45;;;7.10;;
45522;SDS011;31254;51.680;5.394;2023-03-21T05:39:56;13.25;;;6.80;;
45522;SDS011;31254;51.680;5.394;2023-03-21T05:42:25;17.23;;;5.93;;
45522;SDS011;31254;51.680;5.394;2023-03-21T05:44:54;17.63;;;6.47;;
45522;SDS011;31254;51.680;5.394;2023-03-21T05:47:21;14.73;;;6.43;;
45522;SDS011;31254;51.680;5.394;2023-03-21T05:49:47;14.45;;;6.82;;
45522;SDS011;31254;51.680;5.394;2023-03-21T05:52:15;17.60;;;6.60;;
45522;SDS011;31254;51.680;5.394;2023-03-21T05:54:42;14.68;;;6.70;;
45522;SDS011;31254;51.680;5.394;2023-03-21T05:57:08;18.15;;;6.43;;
45522;SDS011;31254;51.680;5.394;2023-03-21T05:59:35;15.25;;;5.72;;
45522;SDS011;31254;51.680;5.394;2023-03-21T06:02:02;17.52;;;6.30;;
45522;SDS011;31254;51.680;5.394;2023-03-21T06:04:29;16.70;;;6.68;;
45522;SDS011;31254;51.680;5.394;2023-03-21T06:06:56;15.98;;;6.32;;
45522;SDS011;31254;51.680;5.394;2023-03-21T06:09:23;14.48;;;6.82;;
45522;SDS011;31254;51.680;5.394;2023-03-21T06:11:52;17.85;;;6.60;;
45522;SDS011;31254;51.680;5.394;2023-03-21T06:14:22;11.95;;;5.50;;
45522;SDS011;31254;51.680;5.394;2023-03-21T06:16:52;17.92;;;6.50;;
45522;SDS011;31254;51.680;5.394;2023-03-21T06:19:24;14.60;;;5.65;;
45522;SDS011;31254;51.680;5.394;2023-03-21T06:21:53;14.07;;;6.15;;
45522;SDS011;31254;51.680;5.394;2023-03-21T06:24:20;15.98;;;5.60;;
45522;SDS011;31254;51.680;5.394;2023-03-21T06:26:47;11.80;;;5.38;;
45522;SDS011;31254;51.680;5.394;2023-03-21T06:29:13;12.35;;;5.35;;
45522;SDS011;31254;51.680;5.394;2023-03-21T06:31:40;13.30;;;5.25;;
45522;SDS011;31254;51.680;5.394;2023-03-21T06:34:09;16.00;;;5.17;;
45522;SDS011;31254;51.680;5.394;2023-03-21T06:36:37;15.95;;;5.15;;
45522;SDS011;31254;51.680;5.394;2023-03-21T06:39:04;16.17;;;5.53;;
45522;SDS011;31254;51.680;5.394;2023-03-21T06:41:32;14.63;;;5.60;;
45522;SDS011;31254;51.680;5.394;2023-03-21T06:43:59;17.92;;;5.43;;
45522;SDS011;31254;51.680;5.394;2023-03-21T06:46:26;10.43;;;4.68;;
45522;SDS011;31254;51.680;5.394;2023-03-21T06:48:53;16.40;;;5.38;;
45522;SDS011;31254;51.680;5.394;2023-03-21T06:51:19;13.23;;;5.07;;
45522;SDS011;31254;51.680;5.394;2023-03-21T06:53:46;11.02;;;4.55;;
45522;SDS011;31254;51.680;5.394;2023-03-21T06:56:13;13.82;;;4.97;;
45522;SDS011;31254;51.680;5.394;2023-03-21T06:58:40;10.35;;;4.70;;
45522;SDS011;31254;51.680;5.394;2023-03-21T07:01:09;10.50;;;4.90;;
45522;SDS011;31254;51.680;5.394;2023-03-21T07:03:40;13.40;;;5.18;;
45522;SDS011;31254;51.680;5.394;2023-03-21T07:06:07;13.32;;;4.57;;
45522;SDS011;31254;51.680;5.394;2023-03-21T07:08:39;13.82;;;5.47;;
45522;SDS011;31254;51.680;5.394;2023-03-21T07:11:07;13.05;;;5.28;;
45522;SDS011;31254;51.680;5.394;2023-03-21T07:13:35;16.58;;;5.32;;
45522;SDS011;31254;51.680;5.394;2023-03-21T07:16:01;27.80;;;11.13;;
45522;SDS011;31254;51.680;5.394;2023-03-21T07:18:29;17.45;;;8.70;;
45522;SDS011;31254;51.680;5.394;2023-03-21T07:20:56;21.25;;;7.22;;
45522;SDS011;31254;51.680;5.394;2023-03-21T07:23:23;12.48;;;6.38;;
45522;SDS011;31254;51.680;5.394;2023-03-21T07:25:52;21.17;;;8.75;;
45522;SDS011;31254;51.680;5.394;2023-03-21T07:28:21;16.27;;;7.47;;
45522;SDS011;31254;51.680;5.394;2023-03-21T07:30:56;14.38;;;5.85;;
45522;SDS011;31254;51.680;5.394;2023-03-21T07:33:24;13.18;;;6.03;;
45522;SDS011;31254;51.680;5.394;2023-03-21T07:35:54;18.15;;;6.13;;
45522;SDS011;31254;51.680;5.394;2023-03-21T07:38:24;27.25;;;12.82;;
45522;SDS011;31254;51.680;5.394;2023-03-21T07:40:52;11.65;;;5.57;;
45522;SDS011;31254;51.680;5.394;2023-03-21T07:43:19;16.85;;;6.97;;
45522;SDS011;31254;51.680;5.394;2023-03-21T07:45:48;25.08;;;8.95;;
45522;SDS011;31254;51.680;5.394;2023-03-21T07:48:15;21.92;;;11.25;;
45522;SDS011;31254;51.680;5.394;2023-03-21T07:50:43;18.25;;;7.90;;
45522;SDS011;31254;51.680;5.394;2023-03-21T07:53:15;18.20;;;8.13;;
45522;SDS011;31254;51.680;5.394;2023-03-21T07:55:42;17.60;;;7.78;;
45522;SDS011;31254;51.680;5.394;2023-03-21T07:58:14;22.92;;;8.88;;
45522;SDS011;31254;51.680;5.394;2023-03-21T08:00:41;23.48;;;12.30;;
45522;SDS011;31254;51.680;5.394;2023-03-21T08:03:08;14.95;;;7.25;;
45522;SDS011;31254;51.680;5.394;2023-03-21T08:05:37;15.75;;;6.57;;
45522;SDS011;31254;51.680;5.394;2023-03-21T08:08:06;21.23;;;9.38;;
45522;SDS011;31254;51.680;5.394;2023-03-21T08:10:33;18.75;;;9.27;;
45522;SDS011;31254;51.680;5.394;2023-03-21T08:13:01;16.10;;;8.18;;
45522;SDS011;31254;51.680;5.394;2023-03-21T08:15:29;16.60;;;8.15;;
45522;SDS011;31254;51.680;5.394;2023-03-21T08:17:57;18.23;;;8.77;;
45522;SDS011;31254;51.680;5.394;2023-03-21T08:20:26;23.77;;;10.27;;
45522;SDS011;31254;51.680;5.394;2023-03-21T08:22:56;21.58;;;7.93;;
45522;SDS011;31254;51.680;5.394;2023-03-21T08:25:22;19.08;;;8.20;;
45522;SDS011;31254;51.680;5.394;2023-03-21T08:27:50;19.90;;;8.70;;
45522;SDS011;31254;51.680;5.394;2023-03-21T08:30:18;14.63;;;7.22;;
45522;SDS011;31254;51.680;5.394;2023-03-21T08:32:49;21.90;;;8.70;;
45522;SDS011;31254;51.680;5.394;2023-03-21T08:35:16;16.15;;;7.10;;
45522;SDS011;31254;51.680;5.394;2023-03-21T08:37:44;16.23;;;7.55;;
45522;SDS011;31254;51.680;5.394;2023-03-21T08:40:13;17.40;;;9.52;;
45522;SDS011;31254;51.680;5.394;2023-03-21T08:42:41;18.42;;;7.93;;
45522;SDS011;31254;51.680;5.394;2023-03-21T08:45:11;18.73;;;7.88;;
45522;SDS011;31254;51.680;5.394;2023-03-21T08:47:38;15.82;;;7.90;;
45522;SDS011;31254;51.680;5.394;2023-03-21T08:50:06;29.00;;;10.65;;
45522;SDS011;31254;51.680;5.394;2023-03-21T08:52:38;20.92;;;10.00;;
45522;SDS011;31254;51.680;5.394;2023-03-21T08:55:05;18.08;;;7.43;;
45522;SDS011;31254;51.680;5.394;2023-03-21T08:57:33;16.73;;;7.05;;
45522;SDS011;31254;51.680;5.394;2023-03-21T09:00:00;18.25;;;8.00;;
45522;SDS011;31254;51.680;5.394;2023-03-21T09:02:26;15.90;;;8.55;;
45522;SDS011;31254;51.680;5.394;2023-03-21T09:04:53;15.88;;;7.63;;
45522;SDS011;31254;51.680;5.394;2023-03-21T09:07:24;14.65;;;7.80;;
45522;SDS011;31254;51.680;5.394;2023-03-21T09:09:51;15.43;;;6.82;;
45522;SDS011;31254;51.680;5.394;2023-03-21T09:12:38;15.85;;;6.38;;
45522;SDS011;31254;51.680;5.394;2023-03-21T09:15:07;17.40;;;6.60;;
45522;SDS011;31254;51.680;5.394;2023-03-21T09:17:34;17.65;;;7.18;;
45522;SDS011;31254;51.680;5.394;2023-03-21T09:20:02;12.93;;;6.18;;
45522;SDS011;31254;51.680;5.394;2023-03-21T09:22:37;10.85;;;6.45;;
45522;SDS011;31254;51.680;5.394;2023-03-21T09:25:07;13.45;;;5.85;;
45522;SDS011;31254;51.680;5.394;2023-03-21T09:27:36;11.73;;;5.88;;
45522;SDS011;31254;51.680;5.394;2023-03-21T09:30:03;17.23;;;5.93;;
45522;SDS011;31254;51.680;5.394;2023-03-21T09:32:32;15.02;;;5.63;;
45522;SDS011;31254;51.680;5.394;2023-03-21T09:34:59;14.38;;;6.10;;
45522;SDS011;31254;51.680;5.394;2023-03-21T09:37:30;14.38;;;6.95;;
45522;SDS011;31254;51.680;5.394;2023-03-21T09:39:58;11.68;;;5.18;;
45522;SDS011;31254;51.680;5.394;2023-03-21T09:42:36;13.32;;;5.00;;
45522;SDS011;31254;51.680;5.394;2023-03-21T09:45:17;11.25;;;5.00;;
45522;SDS011;31254;51.680;5.394;2023-03-21T09:47:53;11.40;;;5.57;;
45522;SDS011;31254;51.680;5.394;2023-03-21T09:50:26;11.60;;;5.70;;
45522;SDS011;31254;51.680;5.394;2023-03-21T09:52:58;9.02;;;5.15;;
45522;SDS011;31254;51.680;5.394;2023-03-21T09:55:37;12.32;;;5.45;;
45522;SDS011;31254;51.680;5.394;2023-03-21T09:58:23;12.35;;;5.18;;
45522;SDS011;31254;51.680;5.394;2023-03-21T10:00:56;12.23;;;4.13;;
45522;SDS011;31254;51.680;5.394;2023-03-21T10:03:31;13.43;;;4.72;;
45522;SDS011;31254;51.680;5.394;2023-03-21T10:06:05;13.00;;;5.13;;
45522;SDS011;31254;51.680;5.394;2023-03-21T10:08:39;8.80;;;4.45;;
45522;SDS011;31254;51.680;5.394;2023-03-21T10:11:16;9.63;;;4.45;;
45522;SDS011;31254;51.680;5.394;2023-03-21T10:13:53;10.13;;;4.65;;
45522;SDS011;31254;51.680;5.394;2023-03-21T10:16:29;7.93;;;4.43;;
45522;SDS011;31254;51.680;5.394;2023-03-21T10:19:08;10.63;;;4.78;;
45522;SDS011;31254;51.680;5.394;2023-03-21T10:21:41;14.35;;;4.57;;
45522;SDS011;31254;51.680;5.394;2023-03-21T10:24:30;10.38;;;4.43;;
45522;SDS011;31254;51.680;5.394;2023-03-21T10:26:59;13.30;;;4.63;;
45522;SDS011;31254;51.680;5.394;2023-03-21T10:29:46;9.25;;;4.25;;
45522;SDS011;31254;51.680;5.394;2023-03-21T10:32:14;9.18;;;4.43;;
45522;SDS011;31254;51.680;5.394;2023-03-21T10:34:45;10.00;;;4.28;;
45522;SDS011;31254;51.680;5.394;2023-03-21T10:37:14;12.13;;;4.18;;
45522;SDS011;31254;51.680;5.394;2023-03-21T10:39:43;8.90;;;3.58;;
45522;SDS011;31254;51.680;5.394;2023-03-21T10:42:20;7.97;;;3.60;;
45522;SDS011;31254;51.680;5.394;2023-03-21T10:44:51;8.93;;;4.30;;
45522;SDS011;31254;51.680;5.394;2023-03-21T10:49:54;11.73;;;5.00;;
45522;SDS011;31254;51.680;5.394;2023-03-21T10:52:33;12.30;;;4.20;;
45522;SDS011;31254;51.680;5.394;2023-03-21T10:55:22;15.35;;;4.80;;
45522;SDS011;31254;51.680;5.394;2023-03-21T10:57:55;12.57;;;4.10;;
45522;SDS011;31254;51.680;5.394;2023-03-21T11:00:28;9.05;;;3.72;;
45522;SDS011;31254;51.680;5.394;2023-03-21T11:03:01;12.15;;;4.38;;
45522;SDS011;31254;51.680;5.394;2023-03-21T11:05:33;15.30;;;4.40;;
45522;SDS011;31254;51.680;5.394;2023-03-21T11:08:07;13.00;;;5.25;;
45522;SDS011;31254;51.680;5.394;2023-03-21T11:10:47;12.13;;;5.00;;
45522;SDS011;31254;51.680;5.394;2023-03-21T11:13:22;10.88;;;5.15;;
45522;SDS011;31254;51.680;5.394;2023-03-21T11:15:52;8.82;;;4.20;;
45522;SDS011;31254;51.680;5.394;2023-03-21T11:18:24;10.20;;;4.10;;
45522;SDS011;31254;51.680;5.394;2023-03-21T11:20:57;7.03;;;3.92;;
45522;SDS011;31254;51.680;5.394;2023-03-21T11:23:29;8.38;;;4.13;;
45522;SDS011;31254;51.680;5.394;2023-03-21T11:25:59;9.07;;;4.20;;
45522;SDS011;31254;51.680;5.394;2023-03-21T11:28:39;12.25;;;4.20;;
45522;SDS011;31254;51.680;5.394;2023-03-21T11:31:07;8.50;;;3.80;;
45522;SDS011;31254;51.680;5.394;2023-03-21T11:33:53;9.75;;;4.38;;
45522;SDS011;31254;51.680;5.394;2023-03-21T11:38:53;10.35;;;3.55;;
45522;SDS011;31254;51.680;5.394;2023-03-21T11:41:30;9.00;;;3.55;;
45522;SDS011;31254;51.680;5.394;2023-03-21T11:43:59;13.15;;;4.32;;
45522;SDS011;31254;51.680;5.394;2023-03-21T11:46:28;11.60;;;4.03;;
45522;SDS011;31254;51.680;5.394;2023-03-21T11:48:58;10.18;;;3.83;;
45522;SDS011;31254;51.680;5.394;2023-03-21T11:54:19;7.25;;;4.00;;
45522;SDS011;31254;51.680;5.394;2023-03-21T11:56:55;12.40;;;3.72;;
45522;SDS011;31254;51.680;5.394;2023-03-21T11:59:35;12.35;;;3.80;;
45522;SDS011;31254;51.680;5.394;2023-03-21T12:02:25;9.90;;;3.85;;
45522;SDS011;31254;51.680;5.394;2023-03-21T12:08:00;9.55;;;4.47;;
45522;SDS011;31254;51.680;5.394;2023-03-21T12:21:22;9.55;;;4.45;;
45522;SDS011;31254;51.680;5.394;2023-03-21T12:36:10;10.93;;;3.70;;
45522;SDS011;31254;51.680;5.394;2023-03-21T12:41:39;12.52;;;5.03;;
45522;SDS011;31254;51.680;5.394;2023-03-21T12:44:32;11.23;;;4.30;;
45522;SDS011;31254;51.680;5.394;2023-03-21T12:47:06;9.73;;;4.18;;
45522;SDS011;31254;51.680;5.394;2023-03-21T12:49:41;9.43;;;4.03;;
45522;SDS011;31254;51.680;5.394;2023-03-21T12:52:11;9.68;;;3.88;;
45522;SDS011;31254;51.680;5.394;2023-03-21T12:54:49;10.25;;;3.88;;
45522;SDS011;31254;51.680;5.394;2023-03-21T13:01:06;9.38;;;3.67;;
45522;SDS011;31254;51.680;5.394;2023-03-21T13:03:20;9.00;;;3.50;;
45522;SDS011;31254;51.680;5.394;2023-03-21T13:06:04;10.63;;;4.05;;
45522;SDS011;31254;51.680;5.394;2023-03-21T13:08:34;12.60;;;3.90;;
45522;SDS011;31254;51.680;5.394;2023-03-21T13:11:09;13.13;;;4.32;;
45522;SDS011;31254;51.680;5.394;2023-03-21T13:13:43;8.77;;;4.10;;
45522;SDS011;31254;51.680;5.394;2023-03-21T13:19:12;5.55;;;3.58;;
45522;SDS011;31254;51.680;5.394;2023-03-21T13:27:12;7.50;;;3.15;;
45522;SDS011;31254;51.680;5.394;2023-03-21T13:29:47;5.00;;;2.88;;
45522;SDS011;31254;51.680;5.394;2023-03-21T13:32:41;4.78;;;2.97;;
45522;SDS011;31254;51.680;5.394;2023-03-21T13:37:42;7.93;;;3.47;;
45522;SDS011;31254;51.680;5.394;2023-03-21T13:43:24;6.20;;;3.17;;
45522;SDS011;31254;51.680;5.394;2023-03-21T13:46:07;6.20;;;3.08;;
45522;SDS011;31254;51.680;5.394;2023-03-21T13:50:10;8.95;;;3.22;;
45522;SDS011;31254;51.680;5.394;2023-03-21T13:52:31;6.83;;;3.47;;
45522;SDS011;31254;51.680;5.394;2023-03-21T13:55:02;8.00;;;3.42;;
45522;SDS011;31254;51.680;5.394;2023-03-21T14:00:15;8.00;;;3.20;;
45522;SDS011;31254;51.680;5.394;2023-03-21T14:03:06;9.27;;;3.33;;
45522;SDS011;31254;51.680;5.394;2023-03-21T14:05:35;9.73;;;3.42;;
45522;SDS011;31254;51.680;5.394;2023-03-21T14:08:06;6.75;;;3.40;;
45522;SDS011;31254;51.680;5.394;2023-03-21T14:10:44;9.10;;;3.45;;
45522;SDS011;31254;51.680;5.394;2023-03-21T14:13:16;13.13;;;3.55;;
45522;SDS011;31254;51.680;5.394;2023-03-21T14:16:08;9.13;;;3.45;;
45522;SDS011;31254;51.680;5.394;2023-03-21T14:18:40;8.27;;;2.97;;
45522;SDS011;31254;51.680;5.394;2023-03-21T14:21:26;9.48;;;3.22;;
45522;SDS011;31254;51.680;5.394;2023-03-21T14:23:56;8.73;;;4.03;;
45522;SDS011;31254;51.680;5.394;2023-03-21T14:26:30;8.70;;;3.35;;
45522;SDS011;31254;51.680;5.394;2023-03-21T14:29:03;8.52;;;3.70;;
45522;SDS011;31254;51.680;5.394;2023-03-21T14:31:44;9.27;;;3.45;;
45522;SDS011;31254;51.680;5.394;2023-03-21T14:34:14;7.20;;;3.20;;
45522;SDS011;31254;51.680;5.394;2023-03-21T14:36:44;6.65;;;3.13;;
45522;SDS011;31254;51.680;5.394;2023-03-21T14:39:28;5.03;;;3.35;;
45522;SDS011;31254;51.680;5.394;2023-03-21T14:42:00;5.57;;;3.10;;
45522;SDS011;31254;51.680;5.394;2023-03-21T14:47:27;8.70;;;3.00;;
45522;SDS011;31254;51.680;5.394;2023-03-21T14:49:55;8.63;;;3.22;;
45522;SDS011;31254;51.680;5.394;2023-03-21T14:52:28;9.13;;;3.55;;
45522;SDS011;31254;51.680;5.394;2023-03-21T14:54:57;8.10;;;3.45;;
45522;SDS011;31254;51.680;5.394;2023-03-21T14:57:29;6.40;;;3.17;;
45522;SDS011;31254;51.680;5.394;2023-03-21T14:59:59;7.28;;;3.10;;
45522;SDS011;31254;51.680;5.394;2023-03-21T15:02:33;6.95;;;3.28;;
45522;SDS011;31254;51.680;5.394;2023-03-21T15:07:36;8.63;;;3.05;;
45522;SDS011;31254;51.680;5.394;2023-03-21T15:10:04;8.02;;;3.30;;
45522;SDS011;31254;51.680;5.394;2023-03-21T15:12:33;4.93;;;2.88;;
45522;SDS011;31254;51.680;5.394;2023-03-21T15:15:00;9.75;;;3.40;;
45522;SDS011;31254;51.680;5.394;2023-03-21T15:17:28;8.57;;;3.38;;
45522;SDS011;31254;51.680;5.394;2023-03-21T15:19:55;10.52;;;3.33;;
45522;SDS011;31254;51.680;5.394;2023-03-21T15:25:11;8.32;;;3.17;;
45522;SDS011;31254;51.680;5.394;2023-03-21T15:27:44;9.68;;;3.65;;
45522;SDS011;31254;51.680;5.394;2023-03-21T15:30:18;5.88;;;3.30;;
45522;SDS011;31254;51.680;5.394;2023-03-21T15:32:49;6.45;;;3.53;;
45522;SDS011;31254;51.680;5.394;2023-03-21T15:35:27;7.35;;;3.17;;
45522;SDS011;31254;51.680;5.394;2023-03-21T15:37:57;8.07;;;3.05;;
45522;SDS011;31254;51.680;5.394;2023-03-21T15:40:29;5.78;;;3.22;;
45522;SDS011;31254;51.680;5.394;2023-03-21T15:45:48;8.32;;;3.35;;
45522;SDS011;31254;51.680;5.394;2023-03-21T15:48:25;6.18;;;2.88;;
45522;SDS011;31254;51.680;5.394;2023-03-21T15:53:25;6.03;;;2.70;;
45522;SDS011;31254;51.680;5.394;2023-03-21T15:55:57;5.63;;;2.55;;
45522;SDS011;31254;51.680;5.394;2023-03-21T15:58:31;7.93;;;2.58;;
45522;SDS011;31254;51.680;5.394;2023-03-21T16:01:05;9.32;;;2.70;;
45522;SDS011;31254;51.680;5.394;2023-03-21T16:03:40;6.75;;;2.63;;
45522;SDS011;31254;51.680;5.394;2023-03-21T16:13:48;6.95;;;2.83;;
45522;SDS011;31254;51.680;5.394;2023-03-21T16:16:18;7.65;;;2.78;;
45522;SDS011;31254;51.680;5.394;2023-03-21T16:18:46;5.15;;;2.90;;
45522;SDS011;31254;51.680;5.394;2023-03-21T16:21:14;7.03;;;3.40;;
45522;SDS011;31254;51.680;5.394;2023-03-21T16:23:43;6.18;;;3.17;;
45522;SDS011;31254;51.680;5.394;2023-03-21T16:26:15;14.40;;;3.90;;
45522;SDS011;31254;51.680;5.394;2023-03-21T16:28:44;7.13;;;3.63;;
45522;SDS011;31254;51.680;5.394;2023-03-21T16:31:12;6.32;;;3.45;;
45522;SDS011;31254;51.680;5.394;2023-03-21T16:33:44;7.50;;;3.60;;
45522;SDS011;31254;51.680;5.394;2023-03-21T16:36:13;10.45;;;4.25;;
45522;SDS011;31254;51.680;5.394;2023-03-21T16:38:46;8.70;;;4.35;;
45522;SDS011;31254;51.680;5.394;2023-03-21T16:41:23;6.90;;;4.13;;
45522;SDS011;31254;51.680;5.394;2023-03-21T16:43:51;10.48;;;4.00;;
45522;SDS011;31254;51.680;5.394;2023-03-21T16:46:19;8.13;;;5.07;;
45522;SDS011;31254;51.680;5.394;2023-03-21T16:48:51;9.27;;;4.35;;
45522;SDS011;31254;51.680;5.394;2023-03-21T16:51:21;8.27;;;4.30;;
45522;SDS011;31254;51.680;5.394;2023-03-21T16:53:56;8.80;;;3.95;;
45522;SDS011;31254;51.680;5.394;2023-03-21T16:56:35;9.50;;;4.13;;
45522;SDS011;31254;51.680;5.394;2023-03-21T16:59:09;10.43;;;4.65;;